sensor_id;sensor_type;location;lat;lon;timestamp;P1;durP1;ratioP1;P2;durP2;ratioP2
82781;SDS011;72517;47.260;11.422;2024-01-15T00:02:06;19.23;;;10.48;;
82781;SDS011;72517;47.260;11.422;2024-01-15T00:04:37;18.42;;;10.40;;
82781;SDS011;72517;47.260;11.422;2024-01-15T00:07:05;20.83;;;10.75;;
82781;SDS011;72517;47.260;11.422;2024-01-15T00:09:32;22.23;;;10.95;;
82781;SDS011;72517;47.260;11.422;2024-01-15T00:12:00;18.15;;;10.25;;
82781;SDS011;72517;47.260;11.422;2024-01-15T00:14:28;17.13;;;9.45;;
82781;SDS011;72517;47.260;11.422;2024-01-15T00:16:55;19.00;;;10.00;;
82781;SDS011;72517;47.260;11.422;2024-01-15T00:19:21;16.90;;;9.52;;
82781;SDS011;72517;47.260;11.422;2024-01-15T00:21:49;16.75;;;9.90;;
82781;SDS011;72517;47.260;11.422;2024-01-15T00:24:16;19.92;;;9.90;;
82781;SDS011;72517;47.260;11.422;2024-01-15T00:26:44;17.42;;;9.82;;
82781;SDS011;72517;47.260;11.422;2024-01-15T00:29:11;19.88;;;10.15;;
82781;SDS011;72517;47.260;11.422;2024-01-15T00:31:38;17.17;;;9.40;;
82781;SDS011;72517;47.260;11.422;2024-01-15T00:34:05;15.00;;;8.30;;
82781;SDS011;72517;47.260;11.422;2024-01-15T00:36:32;13.57;;;7.80;;
82781;SDS011;72517;47.260;11.422;2024-01-15T00:38:58;14.00;;;8.27;;
82781;SDS011;72517;47.260;11.422;2024-01-15T00:41:25;14.90;;;7.80;;
82781;SDS011;72517;47.260;11.422;2024-01-15T00:43:53;14.15;;;6.75;;
82781;SDS011;72517;47.260;11.422;2024-01-15T00:46:20;14.40;;;6.95;;
82781;SDS011;72517;47.260;11.422;2024-01-15T00:48:47;16.10;;;7.85;;
82781;SDS011;72517;47.260;11.422;2024-01-15T00:51:14;12.52;;;7.10;;
82781;SDS011;72517;47.260;11.422;2024-01-15T00:53:40;15.10;;;7.22;;
82781;SDS011;72517;47.260;11.422;2024-01-15T00:56:07;14.55;;;7.60;;
82781;SDS011;72517;47.260;11.422;2024-01-15T00:58:34;16.60;;;8.45;;
82781;SDS011;72517;47.260;11.422;2024-01-15T01:01:01;12.50;;;6.95;;
82781;SDS011;72517;47.260;11.422;2024-01-15T01:03:28;12.20;;;6.40;;
82781;SDS011;72517;47.260;11.422;2024-01-15T01:05:55;12.75;;;6.20;;
82781;SDS011;72517;47.260;11.422;2024-01-15T01:08:22;11.68;;;6.72;;
82781;SDS011;72517;47.260;11.422;2024-01-15T01:10:49;11.02;;;6.38;;
82781;SDS011;72517;47.260;11.422;2024-01-15T01:13:15;13.20;;;7.10;;
82781;SDS011;72517;47.260;11.422;2024-01-15T01:15:42;14.93;;;6.90;;
82781;SDS011;72517;47.260;11.422;2024-01-15T01:18:09;10.35;;;6.55;;
82781;SDS011;72517;47.260;11.422;2024-01-15T01:20:36;11.98;;;7.00;;
82781;SDS011;72517;47.260;11.422;2024-01-15T01:23:03;14.60;;;7.60;;
82781;SDS011;72517;47.260;11.422;2024-01-15T01:25:30;12.52;;;7.75;;
82781;SDS011;72517;47.260;11.422;2024-01-15T01:27:57;14.65;;;8.75;;
82781;SDS011;72517;47.260;11.422;2024-01-15T01:30:23;37.67;;;16.33;;
82781;SDS011;72517;47.260;11.422;2024-01-15T01:32:50;25.90;;;13.27;;
82781;SDS011;72517;47.260;11.422;2024-01-15T01:35:17;22.52;;;12.05;;
82781;SDS011;72517;47.260;11.422;2024-01-15T01:37:44;34.65;;;15.93;;
82781;SDS011;72517;47.260;11.422;2024-01-15T01:40:11;24.67;;;12.48;;
82781;SDS011;72517;47.260;11.422;2024-01-15T01:42:38;19.70;;;10.88;;
82781;SDS011;72517;47.260;11.422;2024-01-15T01:45:05;17.40;;;10.35;;
82781;SDS011;72517;47.260;11.422;2024-01-15T01:47:32;19.55;;;9.93;;
82781;SDS011;72517;47.260;11.422;2024-01-15T01:49:58;19.73;;;10.38;;
82781;SDS011;72517;47.260;11.422;2024-01-15T01:52:25;19.90;;;10.70;;
82781;SDS011;72517;47.260;11.422;2024-01-15T01:54:52;20.48;;;11.48;;
82781;SDS011;72517;47.260;11.422;2024-01-15T01:57:19;20.85;;;11.50;;
82781;SDS011;72517;47.260;11.422;2024-01-15T01:59:46;22.65;;;11.75;;
82781;SDS011;72517;47.260;11.422;2024-01-15T02:02:13;19.80;;;10.90;;
82781;SDS011;72517;47.260;11.422;2024-01-15T02:04:41;21.90;;;11.80;;
82781;SDS011;72517;47.260;11.422;2024-01-15T02:07:09;20.10;;;12.35;;
82781;SDS011;72517;47.260;11.422;2024-01-15T02:09:36;19.73;;;12.35;;
82781;SDS011;72517;47.260;11.422;2024-01-15T02:12:03;28.85;;;13.07;;
82781;SDS011;72517;47.260;11.422;2024-01-15T02:14:30;20.58;;;11.82;;
82781;SDS011;72517;47.260;11.422;2024-01-15T02:16:57;23.80;;;11.57;;
82781;SDS011;72517;47.260;11.422;2024-01-15T02:19:24;22.75;;;13.27;;
82781;SDS011;72517;47.260;11.422;2024-01-15T02:21:51;21.52;;;12.32;;
82781;SDS011;72517;47.260;11.422;2024-01-15T02:24:18;23.48;;;12.45;;
82781;SDS011;72517;47.260;11.422;2024-01-15T02:26:45;27.38;;;13.75;;
82781;SDS011;72517;47.260;11.422;2024-01-15T02:35:14;24.38;;;13.15;;
82781;SDS011;72517;47.260;11.422;2024-01-15T02:37:41;28.08;;;12.93;;
82781;SDS011;72517;47.260;11.422;2024-01-15T02:40:08;21.30;;;12.15;;
82781;SDS011;72517;47.260;11.422;2024-01-15T02:42:35;22.00;;;12.68;;
82781;SDS011;72517;47.260;11.422;2024-01-15T02:45:02;24.35;;;12.80;;
82781;SDS011;72517;47.260;11.422;2024-01-15T02:47:30;20.63;;;11.60;;
82781;SDS011;72517;47.260;11.422;2024-01-15T02:49:56;22.75;;;12.23;;
82781;SDS011;72517;47.260;11.422;2024-01-15T02:52:23;25.05;;;12.90;;
82781;SDS011;72517;47.260;11.422;2024-01-15T02:54:50;24.73;;;13.13;;
82781;SDS011;72517;47.260;11.422;2024-01-15T02:57:17;21.00;;;12.18;;
82781;SDS011;72517;47.260;11.422;2024-01-15T02:59:44;23.10;;;13.32;;
82781;SDS011;72517;47.260;11.422;2024-01-15T03:02:11;24.00;;;12.43;;
82781;SDS011;72517;47.260;11.422;2024-01-15T03:04:42;20.00;;;11.82;;
82781;SDS011;72517;47.260;11.422;2024-01-15T03:07:09;24.77;;;12.48;;
82781;SDS011;72517;47.260;11.422;2024-01-15T03:09:36;25.08;;;13.43;;
82781;SDS011;72517;47.260;11.422;2024-01-15T03:12:06;23.63;;;12.68;;
82781;SDS011;72517;47.260;11.422;2024-01-15T03:14:34;21.55;;;12.32;;
82781;SDS011;72517;47.260;11.422;2024-01-15T03:17:02;22.70;;;11.73;;
82781;SDS011;72517;47.260;11.422;2024-01-15T03:19:28;22.85;;;12.20;;
82781;SDS011;72517;47.260;11.422;2024-01-15T03:21:56;24.13;;;12.73;;
82781;SDS011;72517;47.260;11.422;2024-01-15T03:24:23;25.10;;;12.70;;
82781;SDS011;72517;47.260;11.422;2024-01-15T03:26:49;19.92;;;11.43;;
82781;SDS011;72517;47.260;11.422;2024-01-15T03:29:16;22.08;;;12.45;;
82781;SDS011;72517;47.260;11.422;2024-01-15T03:31:43;23.40;;;11.75;;
82781;SDS011;72517;47.260;11.422;2024-01-15T03:34:11;22.55;;;12.43;;
82781;SDS011;72517;47.260;11.422;2024-01-15T03:36:38;20.52;;;12.55;;
82781;SDS011;72517;47.260;11.422;2024-01-15T03:39:05;25.52;;;13.13;;
82781;SDS011;72517;47.260;11.422;2024-01-15T03:41:32;22.30;;;12.20;;
82781;SDS011;72517;47.260;11.422;2024-01-15T03:43:59;23.55;;;12.95;;
82781;SDS011;72517;47.260;11.422;2024-01-15T03:46:27;23.65;;;12.57;;
82781;SDS011;72517;47.260;11.422;2024-01-15T03:48:54;22.27;;;12.30;;
82781;SDS011;72517;47.260;11.422;2024-01-15T03:51:20;23.52;;;11.85;;
82781;SDS011;72517;47.260;11.422;2024-01-15T03:53:47;25.55;;;11.93;;
82781;SDS011;72517;47.260;11.422;2024-01-15T03:56:14;19.75;;;10.85;;
82781;SDS011;72517;47.260;11.422;2024-01-15T03:58:41;23.38;;;11.70;;
82781;SDS011;72517;47.260;11.422;2024-01-15T04:01:11;27.65;;;11.70;;
82781;SDS011;72517;47.260;11.422;2024-01-15T04:03:38;19.20;;;11.30;;
82781;SDS011;72517;47.260;11.422;2024-01-15T04:06:05;23.60;;;10.48;;
82781;SDS011;72517;47.260;11.422;2024-01-15T04:08:32;19.92;;;10.93;;
82781;SDS011;72517;47.260;11.422;2024-01-15T04:10:58;21.90;;;12.30;;
82781;SDS011;72517;47.260;11.422;2024-01-15T04:13:26;20.65;;;10.68;;
82781;SDS011;72517;47.260;11.422;2024-01-15T04:15:53;24.65;;;11.52;;
82781;SDS011;72517;47.260;11.422;2024-01-15T04:18:20;75.75;;;33.30;;
82781;SDS011;72517;47.260;11.422;2024-01-15T04:20:47;173.05;;;89.95;;
82781;SDS011;72517;47.260;11.422;2024-01-15T04:23:14;101.47;;;50.92;;
82781;SDS011;72517;47.260;11.422;2024-01-15T04:25:41;23.20;;;12.80;;
82781;SDS011;72517;47.260;11.422;2024-01-15T04:28:08;18.10;;;10.75;;
82781;SDS011;72517;47.260;11.422;2024-01-15T04:30:35;18.88;;;11.55;;
82781;SDS011;72517;47.260;11.422;2024-01-15T04:33:02;24.98;;;12.18;;
82781;SDS011;72517;47.260;11.422;2024-01-15T04:35:32;24.67;;;11.95;;
82781;SDS011;72517;47.260;11.422;2024-01-15T04:38:00;23.88;;;11.45;;
82781;SDS011;72517;47.260;11.422;2024-01-15T04:40:27;24.05;;;11.30;;
82781;SDS011;72517;47.260;11.422;2024-01-15T04:42:54;94.45;;;45.00;;
82781;SDS011;72517;47.260;11.422;2024-01-15T04:45:21;91.40;;;43.05;;
82781;SDS011;72517;47.260;11.422;2024-01-15T04:47:53;24.70;;;13.13;;
82781;SDS011;72517;47.260;11.422;2024-01-15T04:50:21;19.92;;;11.38;;
82781;SDS011;72517;47.260;11.422;2024-01-15T04:52:49;19.45;;;11.32;;
82781;SDS011;72517;47.260;11.422;2024-01-15T04:55:16;21.92;;;11.68;;
82781;SDS011;72517;47.260;11.422;2024-01-15T04:57:43;23.15;;;11.52;;
82781;SDS011;72517;47.260;11.422;2024-01-15T05:00:10;20.13;;;11.50;;
82781;SDS011;72517;47.260;11.422;2024-01-15T05:02:38;20.13;;;9.32;;
82781;SDS011;72517;47.260;11.422;2024-01-15T05:05:05;21.23;;;10.73;;
82781;SDS011;72517;47.260;11.422;2024-01-15T05:07:32;16.92;;;10.55;;
82781;SDS011;72517;47.260;11.422;2024-01-15T05:09:59;22.98;;;12.13;;
82781;SDS011;72517;47.260;11.422;2024-01-15T05:12:26;19.17;;;11.02;;
82781;SDS011;72517;47.260;11.422;2024-01-15T05:14:53;22.50;;;12.02;;
82781;SDS011;72517;47.260;11.422;2024-01-15T05:17:20;23.40;;;10.30;;
82781;SDS011;72517;47.260;11.422;2024-01-15T05:19:46;24.73;;;12.23;;
82781;SDS011;72517;47.260;11.422;2024-01-15T05:22:13;18.60;;;10.48;;
82781;SDS011;72517;47.260;11.422;2024-01-15T05:24:39;21.27;;;10.88;;
82781;SDS011;72517;47.260;11.422;2024-01-15T05:27:06;36.85;;;18.90;;
82781;SDS011;72517;47.260;11.422;2024-01-15T05:29:33;61.75;;;27.10;;
82781;SDS011;72517;47.260;11.422;2024-01-15T05:32:00;27.33;;;13.10;;
82781;SDS011;72517;47.260;11.422;2024-01-15T05:34:27;24.35;;;12.80;;
82781;SDS011;72517;47.260;11.422;2024-01-15T05:36:54;23.13;;;12.38;;
82781;SDS011;72517;47.260;11.422;2024-01-15T05:39:21;21.30;;;12.40;;
82781;SDS011;72517;47.260;11.422;2024-01-15T05:41:47;20.50;;;12.15;;
82781;SDS011;72517;47.260;11.422;2024-01-15T05:44:14;25.48;;;11.52;;
82781;SDS011;72517;47.260;11.422;2024-01-15T05:46:41;20.95;;;11.88;;
82781;SDS011;72517;47.260;11.422;2024-01-15T05:49:08;20.00;;;11.40;;
82781;SDS011;72517;47.260;11.422;2024-01-15T05:51:35;19.98;;;12.13;;
82781;SDS011;72517;47.260;11.422;2024-01-15T05:54:02;21.85;;;11.55;;
82781;SDS011;72517;47.260;11.422;2024-01-15T05:56:29;20.38;;;10.65;;
82781;SDS011;72517;47.260;11.422;2024-01-15T05:58:55;20.42;;;11.13;;
82781;SDS011;72517;47.260;11.422;2024-01-15T06:01:22;19.27;;;11.23;;
82781;SDS011;72517;47.260;11.422;2024-01-15T06:03:49;20.15;;;10.57;;
82781;SDS011;72517;47.260;11.422;2024-01-15T06:06:16;20.75;;;11.05;;
82781;SDS011;72517;47.260;11.422;2024-01-15T06:08:43;18.45;;;10.23;;
82781;SDS011;72517;47.260;11.422;2024-01-15T06:11:10;21.58;;;10.85;;
82781;SDS011;72517;47.260;11.422;2024-01-15T06:13:37;37.78;;;15.57;;
82781;SDS011;72517;47.260;11.422;2024-01-15T06:16:11;24.65;;;12.07;;
82781;SDS011;72517;47.260;11.422;2024-01-15T06:18:42;19.27;;;11.25;;
82781;SDS011;72517;47.260;11.422;2024-01-15T06:21:08;22.20;;;12.23;;
82781;SDS011;72517;47.260;11.422;2024-01-15T06:23:37;27.55;;;13.20;;
82781;SDS011;72517;47.260;11.422;2024-01-15T06:26:04;29.08;;;12.88;;
82781;SDS011;72517;47.260;11.422;2024-01-15T06:28:31;29.23;;;13.65;;
82781;SDS011;72517;47.260;11.422;2024-01-15T06:30:58;28.92;;;13.90;;
82781;SDS011;72517;47.260;11.422;2024-01-15T06:33:25;25.27;;;12.68;;
82781;SDS011;72517;47.260;11.422;2024-01-15T06:35:52;20.15;;;11.52;;
82781;SDS011;72517;47.260;11.422;2024-01-15T06:38:19;25.95;;;14.70;;
82781;SDS011;72517;47.260;11.422;2024-01-15T06:40:46;25.00;;;13.27;;
82781;SDS011;72517;47.260;11.422;2024-01-15T06:43:13;20.88;;;11.65;;
82781;SDS011;72517;47.260;11.422;2024-01-15T06:45:41;21.95;;;12.18;;
82781;SDS011;72517;47.260;11.422;2024-01-15T06:48:08;23.25;;;11.55;;
82781;SDS011;72517;47.260;11.422;2024-01-15T06:50:35;23.30;;;12.95;;
82781;SDS011;72517;47.260;11.422;2024-01-15T06:53:01;23.08;;;12.93;;
82781;SDS011;72517;47.260;11.422;2024-01-15T06:55:28;27.58;;;13.07;;
82781;SDS011;72517;47.260;11.422;2024-01-15T06:57:55;21.50;;;13.05;;
82781;SDS011;72517;47.260;11.422;2024-01-15T07:00:22;19.65;;;12.02;;
82781;SDS011;72517;47.260;11.422;2024-01-15T07:02:49;22.52;;;12.95;;
82781;SDS011;72517;47.260;11.422;2024-01-15T07:05:17;21.35;;;11.80;;
82781;SDS011;72517;47.260;11.422;2024-01-15T07:07:43;22.60;;;11.85;;
82781;SDS011;72517;47.260;11.422;2024-01-15T07:10:10;21.67;;;11.32;;
82781;SDS011;72517;47.260;11.422;2024-01-15T07:12:37;16.83;;;11.00;;
82781;SDS011;72517;47.260;11.422;2024-01-15T07:15:04;20.65;;;11.48;;
82781;SDS011;72517;47.260;11.422;2024-01-15T07:17:33;20.83;;;11.95;;
82781;SDS011;72517;47.260;11.422;2024-01-15T07:20:00;21.48;;;11.65;;
82781;SDS011;72517;47.260;11.422;2024-01-15T07:22:27;22.00;;;11.55;;
82781;SDS011;72517;47.260;11.422;2024-01-15T07:24:54;17.60;;;10.98;;
82781;SDS011;72517;47.260;11.422;2024-01-15T07:27:24;18.58;;;11.10;;
82781;SDS011;72517;47.260;11.422;2024-01-15T07:29:51;18.90;;;11.80;;
82781;SDS011;72517;47.260;11.422;2024-01-15T07:32:18;20.50;;;12.40;;
82781;SDS011;72517;47.260;11.422;2024-01-15T07:34:45;18.77;;;11.70;;
82781;SDS011;72517;47.260;11.422;2024-01-15T07:37:12;18.13;;;11.40;;
82781;SDS011;72517;47.260;11.422;2024-01-15T07:39:39;17.30;;;11.35;;
82781;SDS011;72517;47.260;11.422;2024-01-15T07:42:06;19.90;;;11.20;;
82781;SDS011;72517;47.260;11.422;2024-01-15T07:44:33;17.98;;;11.38;;
82781;SDS011;72517;47.260;11.422;2024-01-15T07:47:00;24.33;;;12.05;;
82781;SDS011;72517;47.260;11.422;2024-01-15T07:49:27;17.95;;;11.38;;
82781;SDS011;72517;47.260;11.422;2024-01-15T07:51:54;33.45;;;18.85;;
82781;SDS011;72517;47.260;11.422;2024-01-15T07:54:20;28.45;;;16.27;;
82781;SDS011;72517;47.260;11.422;2024-01-15T07:56:58;24.38;;;15.07;;
82781;SDS011;72517;47.260;11.422;2024-01-15T07:59:26;24.08;;;15.38;;
82781;SDS011;72517;47.260;11.422;2024-01-15T08:01:53;21.67;;;13.57;;
82781;SDS011;72517;47.260;11.422;2024-01-15T08:04:20;25.83;;;15.10;;
82781;SDS011;72517;47.260;11.422;2024-01-15T08:06:48;31.42;;;18.95;;
82781;SDS011;72517;47.260;11.422;2024-01-15T08:09:14;22.48;;;13.15;;
82781;SDS011;72517;47.260;11.422;2024-01-15T08:11:42;18.13;;;11.85;;
82781;SDS011;72517;47.260;11.422;2024-01-15T08:14:09;25.98;;;14.90;;
82781;SDS011;72517;47.260;11.422;2024-01-15T08:16:38;35.57;;;20.27;;
82781;SDS011;72517;47.260;11.422;2024-01-15T08:19:05;22.00;;;13.88;;
82781;SDS011;72517;47.260;11.422;2024-01-15T08:21:32;21.90;;;13.85;;
82781;SDS011;72517;47.260;11.422;2024-01-15T08:24:00;20.30;;;12.93;;
82781;SDS011;72517;47.260;11.422;2024-01-15T08:26:28;14.63;;;9.43;;
82781;SDS011;72517;47.260;11.422;2024-01-15T08:28:55;21.73;;;12.00;;
82781;SDS011;72517;47.260;11.422;2024-01-15T08:31:22;22.90;;;13.73;;
82781;SDS011;72517;47.260;11.422;2024-01-15T08:33:49;21.05;;;13.40;;
82781;SDS011;72517;47.260;11.422;2024-01-15T08:36:16;24.58;;;13.52;;
82781;SDS011;72517;47.260;11.422;2024-01-15T08:38:43;25.70;;;15.85;;
82781;SDS011;72517;47.260;11.422;2024-01-15T08:41:10;26.40;;;16.52;;
82781;SDS011;72517;47.260;11.422;2024-01-15T08:43:37;25.17;;;15.15;;
82781;SDS011;72517;47.260;11.422;2024-01-15T08:46:04;22.60;;;13.93;;
82781;SDS011;72517;47.260;11.422;2024-01-15T08:48:32;27.13;;;14.07;;
82781;SDS011;72517;47.260;11.422;2024-01-15T08:50:59;31.13;;;15.32;;
82781;SDS011;72517;47.260;11.422;2024-01-15T08:53:25;50.20;;;27.90;;
82781;SDS011;72517;47.260;11.422;2024-01-15T08:55:53;42.40;;;24.42;;
82781;SDS011;72517;47.260;11.422;2024-01-15T08:58:20;26.25;;;15.65;;
82781;SDS011;72517;47.260;11.422;2024-01-15T09:00:46;21.45;;;12.65;;
82781;SDS011;72517;47.260;11.422;2024-01-15T09:03:13;20.92;;;11.75;;
82781;SDS011;72517;47.260;11.422;2024-01-15T09:05:40;17.45;;;11.45;;
82781;SDS011;72517;47.260;11.422;2024-01-15T09:08:08;16.00;;;11.32;;
82781;SDS011;72517;47.260;11.422;2024-01-15T09:10:35;19.88;;;11.63;;
82781;SDS011;72517;47.260;11.422;2024-01-15T09:13:02;17.98;;;10.98;;
82781;SDS011;72517;47.260;11.422;2024-01-15T09:15:29;16.85;;;10.35;;
82781;SDS011;72517;47.260;11.422;2024-01-15T09:17:57;14.52;;;9.57;;
82781;SDS011;72517;47.260;11.422;2024-01-15T09:20:24;17.20;;;9.52;;
82781;SDS011;72517;47.260;11.422;2024-01-15T09:22:52;14.50;;;9.38;;
82781;SDS011;72517;47.260;11.422;2024-01-15T09:25:19;10.48;;;8.15;;
82781;SDS011;72517;47.260;11.422;2024-01-15T09:27:46;11.85;;;8.50;;
82781;SDS011;72517;47.260;11.422;2024-01-15T09:30:13;12.77;;;8.88;;
82781;SDS011;72517;47.260;11.422;2024-01-15T09:32:40;13.98;;;9.02;;
82781;SDS011;72517;47.260;11.422;2024-01-15T09:35:07;14.32;;;9.38;;
82781;SDS011;72517;47.260;11.422;2024-01-15T09:37:34;16.48;;;10.27;;
82781;SDS011;72517;47.260;11.422;2024-01-15T09:40:02;12.90;;;9.38;;
82781;SDS011;72517;47.260;11.422;2024-01-15T09:42:30;12.50;;;9.68;;
82781;SDS011;72517;47.260;11.422;2024-01-15T09:44:57;15.13;;;9.27;;
82781;SDS011;72517;47.260;11.422;2024-01-15T09:47:24;16.02;;;11.20;;
82781;SDS011;72517;47.260;11.422;2024-01-15T09:49:51;11.88;;;9.13;;
82781;SDS011;72517;47.260;11.422;2024-01-15T09:52:18;19.63;;;15.23;;
82781;SDS011;72517;47.260;11.422;2024-01-15T09:54:46;11.70;;;8.68;;
82781;SDS011;72517;47.260;11.422;2024-01-15T09:57:13;9.73;;;7.30;;
82781;SDS011;72517;47.260;11.422;2024-01-15T09:59:40;8.00;;;6.70;;
82781;SDS011;72517;47.260;11.422;2024-01-15T10:02:10;7.85;;;6.65;;
82781;SDS011;72517;47.260;11.422;2024-01-15T10:04:43;9.60;;;6.65;;
82781;SDS011;72517;47.260;11.422;2024-01-15T10:07:13;7.97;;;6.68;;
82781;SDS011;72517;47.260;11.422;2024-01-15T10:09:44;9.05;;;6.35;;
82781;SDS011;72517;47.260;11.422;2024-01-15T10:12:12;8.95;;;7.20;;
82781;SDS011;72517;47.260;11.422;2024-01-15T10:14:38;8.32;;;7.03;;
82781;SDS011;72517;47.260;11.422;2024-01-15T10:17:13;9.05;;;6.50;;
82781;SDS011;72517;47.260;11.422;2024-01-15T10:19:42;7.97;;;6.57;;
82781;SDS011;72517;47.260;11.422;2024-01-15T10:22:09;7.30;;;6.22;;
82781;SDS011;72517;47.260;11.422;2024-01-15T10:24:36;12.02;;;7.40;;
82781;SDS011;72517;47.260;11.422;2024-01-15T10:27:07;8.87;;;6.97;;
82781;SDS011;72517;47.260;11.422;2024-01-15T10:29:35;8.60;;;6.50;;
82781;SDS011;72517;47.260;11.422;2024-01-15T10:32:03;10.20;;;6.93;;
82781;SDS011;72517;47.260;11.422;2024-01-15T10:34:33;9.25;;;5.72;;
82781;SDS011;72517;47.260;11.422;2024-01-15T10:37:04;9.27;;;6.50;;
82781;SDS011;72517;47.260;11.422;2024-01-15T10:39:34;8.43;;;6.15;;
82781;SDS011;72517;47.260;11.422;2024-01-15T10:42:02;9.95;;;7.18;;
82781;SDS011;72517;47.260;11.422;2024-01-15T10:44:29;9.03;;;6.53;;
82781;SDS011;72517;47.260;11.422;2024-01-15T10:46:56;9.48;;;6.93;;
82781;SDS011;72517;47.260;11.422;2024-01-15T10:49:25;8.50;;;6.78;;
82781;SDS011;72517;47.260;11.422;2024-01-15T10:51:54;11.77;;;8.25;;
82781;SDS011;72517;47.260;11.422;2024-01-15T10:54:22;8.20;;;6.45;;
82781;SDS011;72517;47.260;11.422;2024-01-15T10:56:50;7.90;;;7.10;;
82781;SDS011;72517;47.260;11.422;2024-01-15T10:59:18;8.45;;;6.28;;
82781;SDS011;72517;47.260;11.422;2024-01-15T11:01:47;9.20;;;6.10;;
82781;SDS011;72517;47.260;11.422;2024-01-15T11:04:19;8.65;;;6.22;;
82781;SDS011;72517;47.260;11.422;2024-01-15T11:09:16;6.60;;;5.80;;
82781;SDS011;72517;47.260;11.422;2024-01-15T11:11:44;10.65;;;5.80;;
82781;SDS011;72517;47.260;11.422;2024-01-15T11:14:33;11.25;;;6.25;;
82781;SDS011;72517;47.260;11.422;2024-01-15T11:17:14;7.82;;;6.18;;
82781;SDS011;72517;47.260;11.422;2024-01-15T11:19:46;9.93;;;7.05;;
82781;SDS011;72517;47.260;11.422;2024-01-15T11:25:05;12.43;;;8.85;;
82781;SDS011;72517;47.260;11.422;2024-01-15T11:27:40;10.02;;;7.22;;
82781;SDS011;72517;47.260;11.422;2024-01-15T11:30:14;9.98;;;6.15;;
82781;SDS011;72517;47.260;11.422;2024-01-15T11:32:41;7.78;;;6.05;;
82781;SDS011;72517;47.260;11.422;2024-01-15T11:35:12;11.75;;;6.50;;
82781;SDS011;72517;47.260;11.422;2024-01-15T11:42:58;6.93;;;4.68;;
82781;SDS011;72517;47.260;11.422;2024-01-15T11:45:25;6.85;;;4.70;;
82781;SDS011;72517;47.260;11.422;2024-01-15T11:50:38;8.95;;;5.28;;
82781;SDS011;72517;47.260;11.422;2024-01-15T11:53:55;8.57;;;5.20;;
82781;SDS011;72517;47.260;11.422;2024-01-15T11:56:03;6.82;;;5.10;;
82781;SDS011;72517;47.260;11.422;2024-01-15T11:58:37;8.38;;;6.00;;
82781;SDS011;72517;47.260;11.422;2024-01-15T12:01:03;8.43;;;4.82;;
82781;SDS011;72517;47.260;11.422;2024-01-15T12:03:31;6.90;;;4.57;;
82781;SDS011;72517;47.260;11.422;2024-01-15T12:05:59;10.63;;;5.47;;
82781;SDS011;72517;47.260;11.422;2024-01-15T12:08:26;10.18;;;4.82;;
82781;SDS011;72517;47.260;11.422;2024-01-15T12:10:53;7.65;;;4.55;;
82781;SDS011;72517;47.260;11.422;2024-01-15T12:13:21;9.93;;;5.00;;
82781;SDS011;72517;47.260;11.422;2024-01-15T12:15:49;5.07;;;4.22;;
82781;SDS011;72517;47.260;11.422;2024-01-15T12:18:16;5.80;;;4.65;;
82781;SDS011;72517;47.260;11.422;2024-01-15T12:20:44;9.35;;;5.30;;
82781;SDS011;72517;47.260;11.422;2024-01-15T12:23:12;10.23;;;4.70;;
82781;SDS011;72517;47.260;11.422;2024-01-15T12:25:40;12.60;;;4.95;;
82781;SDS011;72517;47.260;11.422;2024-01-15T12:28:07;7.28;;;4.18;;
82781;SDS011;72517;47.260;11.422;2024-01-15T12:30:35;8.70;;;4.60;;
82781;SDS011;72517;47.260;11.422;2024-01-15T12:33:03;6.70;;;3.87;;
82781;SDS011;72517;47.260;11.422;2024-01-15T12:37:59;5.50;;;3.70;;
82781;SDS011;72517;47.260;11.422;2024-01-15T12:40:27;8.25;;;3.88;;
82781;SDS011;72517;47.260;11.422;2024-01-15T12:42:54;8.27;;;3.90;;
82781;SDS011;72517;47.260;11.422;2024-01-15T12:45:21;10.07;;;4.53;;
82781;SDS011;72517;47.260;11.422;2024-01-15T12:47:48;7.35;;;4.00;;
82781;SDS011;72517;47.260;11.422;2024-01-15T12:50:16;4.53;;;2.67;;
82781;SDS011;72517;47.260;11.422;2024-01-15T12:52:43;5.47;;;3.28;;
82781;SDS011;72517;47.260;11.422;2024-01-15T12:55:10;7.07;;;3.80;;
82781;SDS011;72517;47.260;11.422;2024-01-15T12:57:37;8.75;;;5.35;;
82781;SDS011;72517;47.260;11.422;2024-01-15T13:00:04;10.07;;;5.18;;
82781;SDS011;72517;47.260;11.422;2024-01-15T13:02:36;9.88;;;5.10;;
82781;SDS011;72517;47.260;11.422;2024-01-15T13:05:06;9.85;;;6.07;;
82781;SDS011;72517;47.260;11.422;2024-01-15T13:07:34;8.27;;;3.50;;
82781;SDS011;72517;47.260;11.422;2024-01-15T13:10:02;10.73;;;4.05;;
82781;SDS011;72517;47.260;11.422;2024-01-15T13:12:29;12.60;;;5.53;;
82781;SDS011;72517;47.260;11.422;2024-01-15T13:14:57;7.57;;;3.80;;
82781;SDS011;72517;47.260;11.422;2024-01-15T13:17:24;5.15;;;2.90;;
82781;SDS011;72517;47.260;11.422;2024-01-15T13:19:51;9.25;;;3.80;;
82781;SDS011;72517;47.260;11.422;2024-01-15T13:22:18;6.50;;;1.77;;
82781;SDS011;72517;47.260;11.422;2024-01-15T13:24:45;14.27;;;4.70;;
82781;SDS011;72517;47.260;11.422;2024-01-15T13:27:12;7.65;;;2.63;;
82781;SDS011;72517;47.260;11.422;2024-01-15T13:29:39;14.25;;;7.05;;
82781;SDS011;72517;47.260;11.422;2024-01-15T13:32:06;3.45;;;1.90;;
82781;SDS011;72517;47.260;11.422;2024-01-15T13:34:33;9.40;;;4.07;;
82781;SDS011;72517;47.260;11.422;2024-01-15T13:37:00;4.45;;;2.40;;
82781;SDS011;72517;47.260;11.422;2024-01-15T13:39:27;12.40;;;3.97;;
82781;SDS011;72517;47.260;11.422;2024-01-15T13:41:58;8.23;;;4.60;;
82781;SDS011;72517;47.260;11.422;2024-01-15T13:44:25;12.52;;;5.05;;
82781;SDS011;72517;47.260;11.422;2024-01-15T13:46:52;6.05;;;3.35;;
82781;SDS011;72517;47.260;11.422;2024-01-15T13:49:19;8.15;;;3.80;;
82781;SDS011;72517;47.260;11.422;2024-01-15T13:51:46;14.35;;;7.32;;
82781;SDS011;72517;47.260;11.422;2024-01-15T13:54:13;4.93;;;2.33;;
82781;SDS011;72517;47.260;11.422;2024-01-15T13:56:40;9.52;;;3.53;;
82781;SDS011;72517;47.260;11.422;2024-01-15T13:59:07;9.98;;;5.28;;
82781;SDS011;72517;47.260;11.422;2024-01-15T14:01:34;9.82;;;4.57;;
82781;SDS011;72517;47.260;11.422;2024-01-15T14:04:01;12.23;;;6.00;;
82781;SDS011;72517;47.260;11.422;2024-01-15T14:06:28;5.47;;;2.35;;
82781;SDS011;72517;47.260;11.422;2024-01-15T14:08:55;15.55;;;5.97;;
82781;SDS011;72517;47.260;11.422;2024-01-15T14:11:21;13.68;;;6.53;;
82781;SDS011;72517;47.260;11.422;2024-01-15T14:13:49;7.32;;;3.25;;
82781;SDS011;72517;47.260;11.422;2024-01-15T14:16:16;9.48;;;4.45;;
82781;SDS011;72517;47.260;11.422;2024-01-15T14:18:42;24.27;;;9.52;;
82781;SDS011;72517;47.260;11.422;2024-01-15T14:21:09;20.55;;;8.32;;
82781;SDS011;72517;47.260;11.422;2024-01-15T14:23:36;6.63;;;3.47;;
82781;SDS011;72517;47.260;11.422;2024-01-15T14:26:03;12.60;;;4.57;;
82781;SDS011;72517;47.260;11.422;2024-01-15T14:28:30;14.32;;;5.65;;
82781;SDS011;72517;47.260;11.422;2024-01-15T14:30:57;17.30;;;6.38;;
82781;SDS011;72517;47.260;11.422;2024-01-15T14:33:25;16.17;;;5.22;;
82781;SDS011;72517;47.260;11.422;2024-01-15T14:35:53;9.30;;;1.92;;
82781;SDS011;72517;47.260;11.422;2024-01-15T14:38:20;12.35;;;3.35;;
82781;SDS011;72517;47.260;11.422;2024-01-15T14:40:47;28.30;;;12.40;;